Time;durP1;ratioP1;P1;durP2;ratioP2;P2;SDS_P1;SDS_P2;PMS_P1;PMS_P2;Temp;Humidity;BMP_temperature;BMP_pressure;BME280_temperature;BME280_humidity;BME280_pressure;Samples;Min_cycle;Max_cycle;Signal;HPM_P1;HPM_P2
2023/06/28 00:00:05;;;;;;;6.67;3.57;;;15.80;99.90;;;;;;5074814;28;20197;-75
2023/06/28 00:02:35;;;;;;;6.17;4.13;;;15.80;99.90;;;;;;5074897;28;20201;-75
2023/06/28 00:05:02;;;;;;;5.83;3.83;;;15.70;99.90;;;;;;5074637;28;20193;-76
2023/06/28 00:07:29;;;;;;;5.13;3.40;;;15.70;99.90;;;;;;5074663;28;20200;-76
2023/06/28 00:09:57;;;;;;;5.47;3.60;;;15.70;99.90;;;;;;5074280;28;20607;-76
2023/06/28 00:12:23;;;;;;;5.07;3.10;;;15.70;99.90;;;;;;5074080;28;20224;-77
2023/06/28 00:14:50;;;;;;;7.03;3.70;;;15.70;99.90;;;;;;5074665;28;20223;-77
2023/06/28 00:17:17;;;;;;;9.40;4.27;;;15.60;99.90;;;;;;5074614;28;20200;-76
2023/06/28 00:19:47;;;;;;;8.70;4.63;;;15.40;99.90;;;;;;5074494;28;20196;-75
2023/06/28 00:22:14;;;;;;;12.87;4.93;;;15.00;99.90;;;;;;5074359;28;20205;-75
2023/06/28 00:24:41;;;;;;;7.07;4.47;;;14.70;99.90;;;;;;5074339;28;20269;-74
2023/06/28 00:27:11;;;;;;;7.67;4.57;;;14.70;99.90;;;;;;5074424;28;20197;-74
2023/06/28 00:29:37;;;;;;;6.80;4.87;;;14.70;99.90;;;;;;5074493;28;20197;-74
2023/06/28 00:32:04;;;;;;;7.60;4.77;;;14.70;99.90;;;;;;5074230;28;20282;-75
2023/06/28 00:34:31;;;;;;;7.33;5.77;;;14.60;99.90;;;;;;5074370;28;20197;-75
2023/06/28 00:36:57;;;;;;;7.10;4.73;;;14.50;99.90;;;;;;5074398;28;20256;-74
2023/06/28 00:39:24;;;;;;;8.80;5.10;;;14.40;99.90;;;;;;5073996;28;20262;-75
2023/06/28 00:41:51;;;;;;;7.67;5.10;;;14.40;99.90;;;;;;5074214;28;20629;-75
2023/06/28 00:44:18;;;;;;;8.87;5.50;;;14.50;99.90;;;;;;5074084;28;20201;-75
2023/06/28 00:46:46;;;;;;;6.40;5.63;;;14.50;99.90;;;;;;5073822;28;20707;-75
2023/06/28 00:49:12;;;;;;;7.57;5.90;;;14.50;99.90;;;;;;5073878;28;20667;-75
2023/06/28 00:51:40;;;;;;;8.60;6.53;;;14.60;99.90;;;;;;5073363;28;20289;-75
2023/06/28 00:54:07;;;;;;;6.87;5.70;;;14.60;99.90;;;;;;5073707;28;20251;-75
2023/06/28 00:56:34;;;;;;;9.70;6.80;;;14.70;99.90;;;;;;5073702;28;20255;-75
2023/06/28 00:59:01;;;;;;;7.60;6.03;;;14.70;99.90;;;;;;5073933;28;20192;-75
2023/06/28 01:01:29;;;;;;;7.40;5.97;;;14.70;99.90;;;;;;5073702;28;20201;-75
2023/06/28 01:03:56;;;;;;;9.10;5.73;;;14.60;99.90;;;;;;5073555;28;20255;-75
2023/06/28 01:06:25;;;;;;;7.57;5.43;;;14.60;99.90;;;;;;5073403;28;20197;-76
2023/06/28 01:08:53;;;;;;;8.70;5.10;;;14.40;99.90;;;;;;5073642;28;20193;-75
2023/06/28 01:11:20;;;;;;;6.13;4.90;;;14.40;99.90;;;;;;5073503;28;20225;-75
2023/06/28 01:13:47;;;;;;;7.40;5.20;;;14.30;99.90;;;;;;5073429;28;20258;-75
2023/06/28 01:16:14;;;;;;;7.70;5.00;;;14.30;99.90;;;;;;5073380;28;20596;-75
2023/06/28 01:18:42;;;;;;;7.63;5.97;;;14.20;99.90;;;;;;5073237;28;20217;-75
2023/06/28 01:21:10;;;;;;;8.50;5.73;;;14.10;99.90;;;;;;5073360;28;20604;-75
2023/06/28 01:23:38;;;;;;;7.27;5.70;;;13.90;99.90;;;;;;5073347;28;20225;-75
2023/06/28 01:26:06;;;;;;;7.77;5.83;;;13.80;99.90;;;;;;5073256;28;20259;-75
2023/06/28 01:28:33;;;;;;;7.87;6.33;;;13.60;99.90;;;;;;5073001;28;20664;-75
2023/06/28 01:30:59;;;;;;;8.70;6.40;;;13.70;99.90;;;;;;5073073;28;20205;-75
2023/06/28 01:33:26;;;;;;;11.37;6.33;;;13.70;99.90;;;;;;5072874;28;20232;-75
2023/06/28 01:35:53;;;;;;;7.23;6.50;;;13.80;99.90;;;;;;5073242;28;20200;-75
2023/06/28 01:38:21;;;;;;;12.83;6.77;;;13.80;99.90;;;;;;5072898;28;20664;-75
2023/06/28 01:40:50;;;;;;;13.00;6.83;;;13.70;99.90;;;;;;5073015;28;20556;-75
2023/06/28 01:43:17;;;;;;;7.97;6.93;;;13.70;99.90;;;;;;5072940;28;20201;-75
2023/06/28 01:45:44;;;;;;;8.83;6.83;;;13.60;99.90;;;;;;5073068;28;20242;-75
2023/06/28 01:48:10;;;;;;;10.53;6.80;;;13.50;99.90;;;;;;5072585;28;20193;-75
2023/06/28 01:50:37;;;;;;;9.13;7.60;;;13.50;99.90;;;;;;5072970;28;20201;-75
2023/06/28 01:53:07;;;;;;;8.53;7.10;;;13.50;99.90;;;;;;5072872;28;20638;-75
2023/06/28 01:55:33;;;;;;;9.60;7.77;;;13.50;99.90;;;;;;5072814;28;20233;-76
2023/06/28 01:58:01;;;;;;;7.93;7.10;;;13.40;99.90;;;;;;5072834;28;20246;-76
2023/06/28 02:00:28;;;;;;;8.20;7.40;;;13.40;99.90;;;;;;5072667;28;20246;-76
2023/06/28 02:02:55;;;;;;;9.17;7.40;;;13.30;99.90;;;;;;5072715;28;20267;-77
2023/06/28 02:05:22;;;;;;;10.20;8.20;;;13.20;99.90;;;;;;5072275;28;20246;-76
2023/06/28 02:07:48;;;;;;;10.00;7.67;;;13.20;99.90;;;;;;5072796;28;20193;-77
2023/06/28 02:10:17;;;;;;;9.33;8.43;;;13.10;99.90;;;;;;5072686;28;20197;-77
2023/06/28 02:12:44;;;;;;;9.23;8.20;;;13.30;99.90;;;;;;5072165;28;20224;-77
2023/06/28 02:15:13;;;;;;;11.00;8.57;;;13.40;99.90;;;;;;5072638;28;20239;-76
2023/06/28 02:17:40;;;;;;;9.20;8.30;;;13.40;99.90;;;;;;5072605;28;20276;-77
2023/06/28 02:20:10;;;;;;;9.73;8.73;;;13.40;99.90;;;;;;5072614;28;20303;-77
2023/06/28 02:22:36;;;;;;;9.83;8.37;;;13.30;99.90;;;;;;5072686;28;20193;-77
2023/06/28 02:25:03;;;;;;;9.33;8.23;;;13.30;99.90;;;;;;5072513;28;20208;-77
2023/06/28 02:27:30;;;;;;;12.70;9.07;;;13.10;99.90;;;;;;5072397;28;20201;-76
2023/06/28 02:29:57;;;;;;;10.53;9.47;;;13.20;99.90;;;;;;5072256;28;20652;-77
2023/06/28 02:32:25;;;;;;;14.60;11.70;;;13.30;99.90;;;;;;5072483;28;20235;-77
2023/06/28 02:34:51;;;;;;;10.77;9.70;;;13.40;99.90;;;;;;5072390;28;20628;-77
2023/06/28 02:37:18;;;;;;;11.33;10.23;;;13.40;99.90;;;;;;5072524;28;20250;-76
2023/06/28 02:39:45;;;;;;;12.07;10.77;;;13.50;99.90;;;;;;5072235;28;20201;-76
2023/06/28 02:42:11;;;;;;;11.97;10.70;;;13.50;99.90;;;;;;5072120;28;20212;-78
2023/06/28 02:44:38;;;;;;;14.83;13.10;;;13.70;99.90;;;;;;5072396;28;20270;-77
2023/06/28 02:47:05;;;;;;;13.53;12.23;;;13.70;99.90;;;;;;5072306;28;20193;-77
2023/06/28 02:49:33;;;;;;;12.57;10.47;;;13.70;99.90;;;;;;5072166;28;20205;-78
2023/06/28 02:51:59;;;;;;;11.20;10.07;;;13.60;99.90;;;;;;5072270;28;20217;-77
2023/06/28 02:54:26;;;;;;;10.43;9.40;;;13.60;99.90;;;;;;5071931;28;20233;-77
2023/06/28 02:56:53;;;;;;;10.30;9.23;;;13.60;99.90;;;;;;5072104;28;20201;-77
2023/06/28 02:59:19;;;;;;;10.67;9.50;;;13.50;99.90;;;;;;5072090;28;20197;-78
2023/06/28 03:01:46;;;;;;;13.40;9.47;;;13.50;99.90;;;;;;5072233;28;20194;-78
2023/06/28 03:04:13;;;;;;;10.33;9.33;;;13.40;99.90;;;;;;5072021;28;20572;-78
2023/06/28 03:06:41;;;;;;;12.37;9.37;;;13.50;99.90;;;;;;5072049;28;20208;-78
2023/06/28 03:09:08;;;;;;;12.60;9.80;;;13.50;99.90;;;;;;5072121;28;20201;-78
2023/06/28 03:11:35;;;;;;;10.43;9.33;;;13.50;99.90;;;;;;5072319;28;20270;-77
2023/06/28 03:14:01;;;;;;;14.60;9.93;;;13.60;99.90;;;;;;5072124;28;20734;-78
2023/06/28 03:16:28;;;;;;;11.17;9.60;;;13.60;99.90;;;;;;5075131;28;20193;-78
2023/06/28 03:18:55;;;;;;;13.70;9.97;;;13.60;99.90;;;;;;5075770;28;20200;-78
2023/06/28 03:21:22;;;;;;;9.87;8.97;;;13.60;99.90;;;;;;5075704;28;20197;-78
2023/06/28 03:23:49;;;;;;;9.53;8.63;;;13.70;99.90;;;;;;5076129;28;20201;-78
2023/06/28 03:26:16;;;;;;;9.60;8.70;;;13.70;99.90;;;;;;5075685;28;20260;-78
2023/06/28 03:28:43;;;;;;;9.47;8.57;;;13.70;99.90;;;;;;5075650;28;20210;-78
2023/06/28 03:31:09;;;;;;;9.53;8.53;;;13.80;99.90;;;;;;5075589;28;20263;-78
2023/06/28 03:33:36;;;;;;;10.23;8.30;;;13.80;99.90;;;;;;5075448;28;20251;-78
2023/06/28 03:36:03;;;;;;;8.57;7.67;;;13.80;99.90;;;;;;5075253;28;20209;-77
2023/06/28 03:38:29;;;;;;;9.40;8.50;;;13.80;99.90;;;;;;5075162;28;20292;-78
2023/06/28 03:40:57;;;;;;;9.27;8.00;;;13.80;99.90;;;;;;5075389;28;20201;-78
2023/06/28 03:43:24;;;;;;;10.97;8.93;;;13.80;99.90;;;;;;5075165;28;20209;-78
2023/06/28 03:45:50;;;;;;;10.97;8.93;;;13.80;99.90;;;;;;5075304;28;20193;-78
2023/06/28 03:48:18;;;;;;;9.43;8.43;;;13.90;99.90;;;;;;5075091;28;20624;-79
2023/06/28 03:50:44;;;;;;;10.10;7.90;;;13.90;99.90;;;;;;5074977;28;20197;-78
2023/06/28 03:53:11;;;;;;;9.20;7.37;;;13.90;99.90;;;;;;5074844;28;20228;-78
2023/06/28 03:55:38;;;;;;;7.57;6.40;;;13.90;99.90;;;;;;5074779;28;20221;-77
2023/06/28 03:58:06;;;;;;;8.27;7.40;;;13.90;99.90;;;;;;5075104;28;20192;-78
2023/06/28 04:00:32;;;;;;;11.23;7.50;;;13.90;99.90;;;;;;5074963;28;20197;-77
2023/06/28 04:02:59;;;;;;;10.60;7.70;;;13.90;99.90;;;;;;5074732;28;20556;-78
2023/06/28 04:05:25;;;;;;;6.83;6.13;;;14.00;99.90;;;;;;5074680;28;20198;-77
2023/06/28 04:07:57;;;;;;;10.37;7.23;;;14.00;99.90;;;;;;5074965;28;20270;-77
2023/06/28 04:10:24;;;;;;;7.97;7.17;;;14.00;99.90;;;;;;5074747;28;20194;-77
2023/06/28 04:12:51;;;;;;;9.00;6.87;;;14.00;99.90;;;;;;5074535;28;20797;-77
2023/06/28 04:15:19;;;;;;;7.23;6.50;;;13.90;99.90;;;;;;5074573;28;20205;-77
2023/06/28 04:17:46;;;;;;;11.20;6.97;;;13.90;99.90;;;;;;5074575;28;20197;-77
2023/06/28 04:20:12;;;;;;;7.50;6.40;;;14.00;99.90;;;;;;5074390;28;20263;-77
2023/06/28 04:22:39;;;;;;;7.23;6.37;;;14.00;99.90;;;;;;5074467;28;20197;-77
2023/06/28 04:25:06;;;;;;;8.73;6.57;;;13.80;99.90;;;;;;5074522;28;20208;-77
2023/06/28 04:27:33;;;;;;;9.10;6.37;;;13.70;99.90;;;;;;5073516;28;20197;-77
2023/06/28 04:29:59;;;;;;;10.27;6.60;;;13.70;99.90;;;;;;5074363;28;20197;-77
2023/06/28 04:32:27;;;;;;;7.33;6.17;;;13.60;99.90;;;;;;5073956;28;20217;-76
2023/06/28 04:34:55;;;;;;;6.97;6.20;;;13.60;99.90;;;;;;5074220;28;20556;-77
2023/06/28 04:37:22;;;;;;;9.90;6.07;;;13.70;99.90;;;;;;5074078;28;20304;-77
2023/06/28 04:39:48;;;;;;;8.03;5.87;;;13.70;99.90;;;;;;5074025;28;20246;-77
2023/06/28 04:42:15;;;;;;;8.80;6.50;;;13.80;99.90;;;;;;5073906;28;20196;-77
2023/06/28 04:44:43;;;;;;;8.30;6.30;;;13.90;99.90;;;;;;5073905;28;20656;-77
2023/06/28 04:47:15;;;;;;;7.27;6.13;;;13.90;99.90;;;;;;5073745;28;20232;-77
2023/06/28 04:49:44;;;;;;;8.20;5.97;;;14.00;99.90;;;;;;5073961;28;20196;-77
2023/06/28 04:52:12;;;;;;;6.75;5.40;;;14.10;99.90;;;;;;5073641;28;20660;-77
2023/06/28 04:54:39;;;;;;;6.87;5.67;;;14.10;99.90;;;;;;5073585;28;20334;-77
2023/06/28 04:57:06;;;;;;;7.43;5.57;;;14.20;99.90;;;;;;5073777;28;20201;-77
2023/06/28 04:59:33;;;;;;;6.97;4.90;;;14.30;99.90;;;;;;5073624;28;20235;-77
2023/06/28 05:02:03;;;;;;;8.77;5.37;;;14.40;99.90;;;;;;5073510;28;20288;-77
2023/06/28 05:04:31;;;;;;;7.17;5.20;;;14.50;99.90;;;;;;5073679;28;20208;-77
2023/06/28 05:07:01;;;;;;;9.30;5.70;;;14.50;99.90;;;;;;5073553;28;20271;-77
2023/06/28 05:09:28;;;;;;;6.73;5.00;;;14.60;99.90;;;;;;5073812;28;20193;-77
2023/06/28 05:11:55;;;;;;;6.13;4.70;;;14.70;99.90;;;;;;5073449;28;20557;-75
2023/06/28 05:14:22;;;;;;;7.07;5.27;;;14.80;99.90;;;;;;5073243;28;20225;-77
2023/06/28 05:16:49;;;;;;;5.53;4.90;;;14.90;99.90;;;;;;5073494;28;20196;-77
2023/06/28 05:19:15;;;;;;;5.80;5.20;;;15.10;99.90;;;;;;5073501;28;20193;-77
2023/06/28 05:21:42;;;;;;;6.20;4.73;;;15.10;99.90;;;;;;5073343;28;20722;-76
2023/06/28 05:24:10;;;;;;;5.60;4.90;;;15.00;99.90;;;;;;5073257;28;20349;-76
2023/06/28 05:26:36;;;;;;;7.40;5.30;;;15.10;99.90;;;;;;5072763;28;20197;-77
2023/06/28 05:29:03;;;;;;;7.60;5.03;;;15.00;99.90;;;;;;5073356;28;20196;-76
2023/06/28 05:31:29;;;;;;;6.13;5.00;;;15.00;99.90;;;;;;5072814;28;20226;-76
2023/06/28 05:33:56;;;;;;;5.73;4.53;;;15.10;99.90;;;;;;5073049;28;20278;-77
2023/06/28 05:36:23;;;;;;;6.10;5.00;;;15.40;99.90;;;;;;5073156;28;20197;-77
2023/06/28 05:38:50;;;;;;;7.18;4.80;;;15.50;99.90;;;;;;5071995;28;20197;-76
2023/06/28 05:41:18;;;;;;;5.32;4.30;;;15.70;99.90;;;;;;5072776;28;20204;-76
2023/06/28 05:43:46;;;;;;;6.85;4.97;;;15.90;99.90;;;;;;5073141;28;20193;-77
2023/06/28 05:46:13;;;;;;;5.80;4.67;;;15.90;99.90;;;;;;5072758;28;20254;-76
2023/06/28 05:48:39;;;;;;;6.68;4.40;;;16.00;99.90;;;;;;5072639;28;20193;-77
2023/06/28 05:51:09;;;;;;;5.53;4.40;;;15.80;99.90;;;;;;5072680;28;20262;-77
2023/06/28 05:53:37;;;;;;;5.00;4.07;;;16.00;99.90;;;;;;5072521;28;20227;-74
2023/06/28 05:56:03;;;;;;;6.38;4.75;;;16.10;99.90;;;;;;5072293;28;20301;-76
2023/06/28 05:58:32;;;;;;;7.57;4.80;;;16.20;99.90;;;;;;5072353;28;20255;-76
2023/06/28 06:00:59;;;;;;;6.95;4.85;;;16.10;99.90;;;;;;5072740;28;20204;-75
2023/06/28 06:03:25;;;;;;;7.10;4.55;;;16.00;99.90;;;;;;5072554;28;20197;-76
2023/06/28 06:05:54;;;;;;;5.70;5.07;;;16.40;99.90;;;;;;5072487;28;20201;-76
2023/06/28 06:08:21;;;;;;;6.70;5.22;;;16.30;99.90;;;;;;5072287;28;20636;-76
2023/06/28 06:10:47;;;;;;;10.85;5.40;;;16.20;99.90;;;;;;5072675;28;20193;-78
2023/06/28 06:13:14;;;;;;;8.20;5.25;;;16.00;99.90;;;;;;5072110;28;20696;-70
2023/06/28 06:15:42;;;;;;;8.20;5.18;;;16.00;99.90;;;;;;5072569;28;20205;-71
2023/06/28 06:18:09;;;;;;;6.90;5.47;;;16.00;99.90;;;;;;5072345;28;20738;-71
2023/06/28 06:20:36;;;;;;;9.35;5.78;;;16.20;99.90;;;;;;5072415;28;20231;-71
2023/06/28 06:23:03;;;;;;;8.63;5.53;;;16.00;99.90;;;;;;5072130;28;20656;-71
2023/06/28 06:25:29;;;;;;;7.10;5.15;;;16.30;99.90;;;;;;5072671;28;20201;-71
2023/06/28 06:27:56;;;;;;;7.57;5.53;;;16.70;99.90;;;;;;5072485;28;20196;-71
2023/06/28 06:30:23;;;;;;;10.38;5.68;;;16.90;99.90;;;;;;5072286;28;20734;-71
2023/06/28 06:32:51;;;;;;;7.32;5.30;;;16.70;99.90;;;;;;5072161;28;20599;-71
2023/06/28 06:35:17;;;;;;;5.95;5.30;;;16.80;99.90;;;;;;5072048;28;20715;-71
2023/06/28 06:37:45;;;;;;;7.85;4.90;;;16.80;99.90;;;;;;5072133;28;20197;-71
2023/06/28 06:40:12;;;;;;;7.47;5.55;;;17.10;99.90;;;;;;5072351;28;20229;-71
2023/06/28 06:42:39;;;;;;;5.90;5.25;;;17.20;99.90;;;;;;5072291;28;20268;-71
2023/06/28 06:45:07;;;;;;;6.03;4.82;;;17.30;99.90;;;;;;5072131;28;20209;-71
2023/06/28 06:47:35;;;;;;;8.23;5.30;;;17.50;99.90;;;;;;5072164;28;20201;-71
2023/06/28 06:50:04;;;;;;;7.78;5.18;;;18.00;99.90;;;;;;5072811;28;20262;-71
2023/06/28 06:52:30;;;;;;;9.85;5.60;;;17.90;99.90;;;;;;5075909;28;20587;-71
2023/06/28 06:54:57;;;;;;;5.80;5.10;;;18.00;99.90;;;;;;5075487;28;20294;-71
2023/06/28 06:57:23;;;;;;;9.18;5.32;;;18.10;99.90;;;;;;5075905;28;20254;-71
2023/06/28 06:59:50;;;;;;;6.35;4.80;;;18.10;99.90;;;;;;5076008;28;20196;-71
2023/06/28 07:02:17;;;;;;;6.00;4.90;;;18.00;99.90;;;;;;5075723;28;20246;-71
2023/06/28 07:04:43;;;;;;;6.97;5.35;;;18.20;99.90;;;;;;5075633;28;20204;-72
2023/06/28 07:07:11;;;;;;;6.15;4.97;;;18.30;99.90;;;;;;5075958;28;20262;-74
2023/06/28 07:09:38;;;;;;;8.00;5.00;;;18.50;99.90;;;;;;5075880;28;20197;-73
2023/06/28 07:12:05;;;;;;;5.28;4.53;;;18.60;99.90;;;;;;5076122;28;20200;-79
2023/06/28 07:14:32;;;;;;;4.90;4.50;;;18.40;99.90;;;;;;5075364;28;20224;-76
2023/06/28 07:16:59;;;;;;;9.43;4.88;;;19.00;99.90;;;;;;5075556;28;20201;-75
2023/06/28 07:19:26;;;;;;;6.55;4.90;;;18.90;99.90;;;;;;5075746;28;20254;-75
2023/06/28 07:21:52;;;;;;;6.65;4.53;;;18.70;99.90;;;;;;5075661;28;20204;-77
2023/06/28 07:24:20;;;;;;;6.38;4.78;;;18.80;99.90;;;;;;5075428;28;20251;-76
2023/06/28 07:26:47;;;;;;;5.38;4.60;;;18.90;99.90;;;;;;5075625;28;20208;-78
2023/06/28 07:29:14;;;;;;;4.82;4.10;;;18.60;99.90;;;;;;5075509;28;20193;-80
2023/06/28 07:31:40;;;;;;;4.60;3.95;;;18.70;99.90;;;;;;5075294;28;20197;-79
2023/06/28 07:34:08;;;;;;;5.72;4.00;;;18.90;99.90;;;;;;5075446;28;20652;-73
2023/06/28 07:36:35;;;;;;;4.28;3.83;;;19.00;99.90;;;;;;5075268;28;20682;-74
2023/06/28 07:39:02;;;;;;;5.78;3.88;;;19.20;99.90;;;;;;5075309;28;20557;-73
2023/06/28 07:41:30;;;;;;;7.70;4.10;;;19.40;99.90;;;;;;5075124;28;20192;-72
2023/06/28 07:43:56;;;;;;;5.90;3.90;;;19.40;99.90;;;;;;5075058;28;20246;-74
2023/06/28 07:46:23;;;;;;;5.68;3.72;;;19.40;99.90;;;;;;5074986;28;20259;-73
2023/06/28 07:48:51;;;;;;;7.10;3.30;;;19.60;99.90;;;;;;5075211;28;20197;-73
2023/06/28 07:51:18;;;;;;;5.20;3.38;;;19.40;99.90;;;;;;5075043;28;20738;-73
2023/06/28 07:53:45;;;;;;;7.13;3.35;;;19.60;99.90;;;;;;5074962;28;20213;-74
2023/06/28 07:56:12;;;;;;;5.50;3.25;;;19.80;99.90;;;;;;5074831;28;20229;-73
2023/06/28 07:58:40;;;;;;;7.05;3.03;;;19.80;99.90;;;;;;5074917;28;20197;-73
2023/06/28 08:01:07;;;;;;;5.38;3.33;;;19.90;99.90;;;;;;5074676;28;20197;-73
2023/06/28 08:03:33;;;;;;;6.00;3.35;;;20.20;99.90;;;;;;5074419;28;20212;-73
2023/06/28 08:06:00;;;;;;;5.70;3.67;;;20.30;99.90;;;;;;5074852;28;20251;-73
2023/06/28 08:08:26;;;;;;;6.07;3.42;;;20.10;99.90;;;;;;5074706;28;20727;-73
2023/06/28 08:10:53;;;;;;;6.82;3.55;;;20.50;99.90;;;;;;5074971;28;20201;-73
2023/06/28 08:13:20;;;;;;;5.22;3.75;;;20.80;99.90;;;;;;5074565;28;20204;-75
2023/06/28 08:15:48;;;;;;;6.13;3.40;;;21.20;99.90;;;;;;5074923;28;20254;-77
2023/06/28 08:18:16;;;;;;;5.50;3.25;;;21.40;99.90;;;;;;5074805;28;20205;-78
2023/06/28 08:20:44;;;;;;;3.90;3.10;;;21.50;99.90;;;;;;5074654;28;20200;-77
2023/06/28 08:23:11;;;;;;;6.28;3.08;;;22.20;99.90;;;;;;5074645;28;20201;-78
2023/06/28 08:25:37;;;;;;;5.57;3.20;;;23.20;99.90;;;;;;5073978;28;20192;-78
2023/06/28 08:28:04;;;;;;;4.60;3.42;;;23.70;96.70;;;;;;5074453;28;20205;-78
2023/06/28 08:30:31;;;;;;;8.25;3.83;;;23.30;97.10;;;;;;5074359;28;20226;-77
2023/06/28 08:32:59;;;;;;;6.75;3.53;;;22.60;96.30;;;;;;5074343;28;20262;-76
2023/06/28 08:35:25;;;;;;;4.22;3.00;;;22.40;95.20;;;;;;5074279;28;20706;-78
2023/06/28 08:37:52;;;;;;;7.78;3.47;;;22.90;95.00;;;;;;5074234;28;20197;-78
2023/06/28 08:40:19;;;;;;;6.43;3.42;;;22.70;95.50;;;;;;5074159;28;20227;-78
2023/06/28 08:42:47;;;;;;;5.22;3.00;;;22.60;94.60;;;;;;5074079;28;20197;-78
2023/06/28 08:45:15;;;;;;;6.75;3.08;;;22.40;95.90;;;;;;5071320;28;20204;-78
2023/06/28 08:47:42;;;;;;;5.18;3.17;;;22.50;96.00;;;;;;5064273;28;20251;-77
2023/06/28 08:50:12;;;;;;;7.20;3.50;;;21.90;95.10;;;;;;5073707;28;20667;-76
2023/06/28 08:52:39;;;;;;;6.03;3.42;;;22.00;96.30;;;;;;5073651;28;20205;-75
2023/06/28 08:55:07;;;;;;;5.95;2.90;;;22.10;95.20;;;;;;5073339;28;20274;-74
2023/06/28 08:57:35;;;;;;;6.40;3.00;;;21.70;94.80;;;;;;5073626;28;20205;-73
2023/06/28 09:00:03;;;;;;;6.43;3.42;;;21.70;94.40;;;;;;5073738;28;20201;-73
2023/06/28 09:02:33;;;;;;;4.90;3.20;;;21.70;94.50;;;;;;5064542;28;20247;-75
2023/06/28 09:05:02;;;;;;;4.28;3.30;;;21.80;93.40;;;;;;5066985;28;20204;-74
2023/06/28 09:07:34;;;;;;;4.40;3.00;;;22.10;92.10;;;;;;5072601;28;20759;-74
2023/06/28 09:10:00;;;;;;;6.60;3.10;;;22.50;92.50;;;;;;5073656;28;20246;-75
2023/06/28 09:12:29;;;;;;;4.07;3.35;;;22.60;91.90;;;;;;5073347;28;20251;-74
2023/06/28 09:14:55;;;;;;;4.55;3.30;;;22.10;92.50;;;;;;5073089;28;20692;-74
2023/06/28 09:17:22;;;;;;;4.88;3.60;;;21.50;94.10;;;;;;5073131;28;20196;-77
2023/06/28 09:19:49;;;;;;;7.10;3.90;;;21.20;95.90;;;;;;5073034;28;20224;-73
2023/06/28 09:22:16;;;;;;;8.57;4.15;;;21.20;96.20;;;;;;5073101;28;20201;-73
2023/06/28 09:24:50;;;;;;;4.88;4.28;;;21.80;95.60;;;;;;5073469;28;20193;-73
2023/06/28 09:27:16;;;;;;;7.80;4.25;;;22.00;95.20;;;;;;5073046;28;20193;-74
2023/06/28 09:29:43;;;;;;;6.72;3.38;;;21.80;95.50;;;;;;5073290;28;20205;-73
2023/06/28 09:32:10;;;;;;;7.10;3.63;;;21.60;94.60;;;;;;5070268;28;20235;-73
2023/06/28 09:34:37;;;;;;;5.95;3.40;;;21.30;92.40;;;;;;5070752;28;20275;-73
2023/06/28 09:37:06;;;;;;;8.15;3.50;;;21.20;93.10;;;;;;5071185;28;20223;-74
2023/06/28 09:39:37;;;;;;;6.95;3.50;;;21.70;93.90;;;;;;5065963;28;20672;-72
2023/06/28 09:42:06;;;;;;;9.07;3.60;;;22.00;93.30;;;;;;5050779;28;20568;-73
2023/06/28 09:44:32;;;;;;;7.53;3.90;;;21.80;93.60;;;;;;5050051;28;20201;-73
2023/06/28 09:47:04;;;;;;;5.72;3.22;;;21.60;93.50;;;;;;5050628;28;20259;-72
2023/06/28 09:49:31;;;;;;;9.10;3.65;;;21.90;93.60;;;;;;5050657;28;20212;-73
2023/06/28 09:51:59;;;;;;;8.20;3.58;;;21.90;90.80;;;;;;5050559;28;20198;-73
2023/06/28 09:54:29;;;;;;;6.28;3.30;;;21.50;91.00;;;;;;5049902;28;20650;-72
2023/06/28 09:56:56;;;;;;;5.03;3.33;;;22.30;90.60;;;;;;5050675;28;20247;-72
2023/06/28 09:59:27;;;;;;;4.43;2.88;;;22.90;87.80;;;;;;5050094;28;20254;-73
2023/06/28 10:01:56;;;;;;;4.15;3.25;;;23.60;87.90;;;;;;5051290;28;20260;-73
2023/06/28 10:04:22;;;;;;;5.63;3.10;;;23.50;83.20;;;;;;5054204;28;20255;-72
2023/06/28 10:06:51;;;;;;;5.22;2.88;;;23.80;82.60;;;;;;5049691;28;20255;-73
2023/06/28 10:09:22;;;;;;;4.75;2.80;;;24.50;75.90;;;;;;5049726;28;20288;-72
2023/06/28 10:11:49;;;;;;;6.75;2.72;;;25.00;70.60;;;;;;5050054;28;20206;-73
2023/06/28 10:14:18;;;;;;;4.72;2.58;;;24.20;72.00;;;;;;5049337;28;20221;-72
2023/06/28 10:16:47;;;;;;;4.53;2.72;;;24.30;68.80;;;;;;5050509;28;20239;-72
2023/06/28 10:19:14;;;;;;;5.32;2.70;;;23.80;69.10;;;;;;5052791;28;20248;-75
2023/06/28 10:21:42;;;;;;;4.13;3.10;;;23.60;68.60;;;;;;5052696;28;20197;-75
2023/06/28 10:24:09;;;;;;;5.95;2.92;;;23.80;72.60;;;;;;5052977;28;20255;-76
2023/06/28 10:26:37;;;;;;;5.72;3.13;;;23.80;69.90;;;;;;5058707;28;20653;-75
2023/06/28 10:29:04;;;;;;;6.43;3.10;;;22.50;72.00;;;;;;5059314;28;20201;-76
2023/06/28 10:31:31;;;;;;;4.20;2.90;;;23.10;74.20;;;;;;5059274;28;20201;-74
2023/06/28 10:34:00;;;;;;;5.78;3.13;;;25.00;73.00;;;;;;5059530;28;20258;-73
2023/06/28 10:36:27;;;;;;;6.80;2.97;;;25.70;67.10;;;;;;5058849;28;20526;-73
2023/06/28 10:38:53;;;;;;;3.95;3.00;;;26.30;64.40;;;;;;5059020;28;20535;-74
2023/06/28 10:41:21;;;;;;;3.70;2.80;;;26.20;61.10;;;;;;5058958;28;20535;-73
2023/06/28 10:43:50;;;;;;;5.72;3.10;;;25.60;62.70;;;;;;5059126;28;20197;-73
2023/06/28 10:46:23;;;;;;;6.55;3.25;;;24.80;66.80;;;;;;5059002;28;20201;-73
2023/06/28 10:48:53;;;;;;;6.10;3.20;;;24.30;67.40;;;;;;5058932;28;20288;-74
2023/06/28 10:51:22;;;;;;;7.07;3.28;;;23.80;69.40;;;;;;5058827;28;20565;-74
2023/06/28 10:53:52;;;;;;;6.28;3.47;;;23.10;72.30;;;;;;5058838;28;20580;-73
2023/06/28 10:56:20;;;;;;;6.18;3.40;;;23.30;71.90;;;;;;5058884;28;20302;-74
2023/06/28 10:58:48;;;;;;;6.75;3.00;;;24.40;70.10;;;;;;5058542;28;20680;-73
2023/06/28 11:01:32;;;;;;;4.95;3.00;;;24.80;67.10;;;;;;5058824;28;20198;-73
2023/06/28 11:04:12;;;;;;;5.13;3.13;;;24.50;65.70;;;;;;5058622;28;20197;-73
2023/06/28 11:06:41;;;;;;;6.65;3.10;;;23.70;67.00;;;;;;5058967;28;20201;-73
2023/06/28 11:09:14;;;;;;;5.22;2.92;;;23.80;69.80;;;;;;5058766;28;20760;-73
2023/06/28 11:11:52;;;;;;;4.45;2.92;;;24.10;68.40;;;;;;5058868;28;20193;-73
2023/06/28 11:14:22;;;;;;;6.80;3.22;;;23.30;66.00;;;;;;5058631;28;20204;-73
2023/06/28 11:16:49;;;;;;;7.80;3.10;;;23.30;66.60;;;;;;5058519;28;20221;-73
2023/06/28 11:19:19;;;;;;;3.55;2.80;;;23.30;64.90;;;;;;5058700;28;20243;-73
2023/06/28 11:21:55;;;;;;;5.13;2.85;;;23.60;62.80;;;;;;5058794;28;20214;-73
2023/06/28 11:24:26;;;;;;;6.18;2.88;;;23.70;60.80;;;;;;5058617;28;20247;-73
2023/06/28 11:26:52;;;;;;;4.70;2.80;;;23.90;58.90;;;;;;5058721;28;20198;-73
2023/06/28 11:29:20;;;;;;;3.67;2.92;;;23.40;60.30;;;;;;5058624;28;20201;-73
2023/06/28 11:31:48;;;;;;;6.00;2.40;;;23.80;61.30;;;;;;5058495;28;20251;-73
2023/06/28 11:34:16;;;;;;;4.63;2.33;;;25.80;59.50;;;;;;5058611;28;20405;-73
2023/06/28 11:36:43;;;;;;;5.93;2.88;;;27.80;54.50;;;;;;5056926;28;20283;-73
2023/06/28 11:39:14;;;;;;;3.55;2.35;;;27.60;51.80;;;;;;5055401;28;20561;-73
2023/06/28 11:41:42;;;;;;;6.57;2.63;;;28.70;49.20;;;;;;5055328;28;20198;-73
2023/06/28 11:44:09;;;;;;;4.55;2.10;;;29.10;46.50;;;;;;5055367;28;20198;-73
2023/06/28 11:46:37;;;;;;;3.38;2.15;;;30.10;43.70;;;;;;5055047;28;20681;-72
2023/06/28 11:49:04;;;;;;;4.05;2.22;;;29.70;43.20;;;;;;5055173;28;20251;-72
2023/06/28 11:51:31;;;;;;;5.82;2.45;;;30.80;40.60;;;;;;5054971;28;20246;-73
2023/06/28 11:53:58;;;;;;;5.85;2.30;;;32.30;39.10;;;;;;5055035;28;20737;-73
2023/06/28 11:56:36;;;;;;;3.35;2.20;;;33.20;35.90;;;;;;5054711;28;20326;-72
2023/06/28 11:59:13;;;;;;;4.28;2.20;;;32.20;34.40;;;;;;5055013;28;20204;-73
2023/06/28 12:01:39;;;;;;;4.30;2.00;;;29.90;36.20;;;;;;5054823;28;20747;-72
2023/06/28 12:04:17;;;;;;;4.43;2.58;;;29.80;37.00;;;;;;5054749;28;20738;-72
2023/06/28 12:06:44;;;;;;;4.40;2.42;;;29.40;37.30;;;;;;5054947;28;20250;-72
2023/06/28 12:09:20;;;;;;;3.53;2.42;;;28.50;37.10;;;;;;5054818;28;20232;-71
2023/06/28 12:11:53;;;;;;;6.05;2.60;;;27.90;39.20;;;;;;5054822;28;20197;-71
2023/06/28 12:14:20;;;;;;;5.63;2.88;;;28.40;38.90;;;;;;5054596;28;20200;-72
2023/06/28 12:16:47;;;;;;;3.72;2.60;;;28.40;39.50;;;;;;5054689;28;20231;-72
2023/06/28 12:19:16;;;;;;;4.18;2.55;;;29.70;38.00;;;;;;5054565;28;20197;-72
2023/06/28 12:21:42;;;;;;;7.55;2.42;;;29.80;37.00;;;;;;5054694;28;20204;-72
2023/06/28 12:24:14;;;;;;;3.70;2.40;;;30.80;36.60;;;;;;5054601;28;20205;-72
2023/06/28 12:26:43;;;;;;;4.68;2.42;;;31.70;34.10;;;;;;5054582;28;20212;-72
2023/06/28 12:29:11;;;;;;;6.50;2.70;;;31.00;33.90;;;;;;5054459;28;20197;-72
2023/06/28 12:31:44;;;;;;;5.35;2.10;;;30.60;34.70;;;;;;5054246;28;20243;-71
2023/06/28 12:34:11;;;;;;;3.70;2.47;;;32.40;32.80;;;;;;5054481;28;20197;-72
2023/06/28 12:36:39;;;;;;;3.45;2.67;;;33.00;31.50;;;;;;5054329;28;20229;-72
2023/06/28 12:39:06;;;;;;;3.97;2.60;;;30.20;32.50;;;;;;5054151;28;20572;-71
2023/06/28 12:41:33;;;;;;;4.88;2.10;;;30.50;33.80;;;;;;5054147;28;20201;-72
2023/06/28 12:44:00;;;;;;;5.30;2.28;;;32.20;33.80;;;;;;5053901;28;20718;-72
2023/06/28 12:46:28;;;;;;;4.25;2.20;;;33.70;29.50;;;;;;5053989;28;20255;-71